Terminal Aerodrome Forecast
Issued by NWS

Home | Current Version | Previous Version | Text Only | Print | Product List | Glossary On
Versions: 1 2 3 4 5 6 7 8 9 10 11 12 13 14 15 16 17 18 19 20 21 22 23 24 25 26 27
000
FTUS45 KGGW 180500
TAFGDV
TAF
KGDV 180526Z 1806/1906 VRB04KT P6SM FEW250
     FM181500 20008KT P6SM SCT250
     FM181800 30013KT P6SM BKN250
     FM182100 32021G31KT P6SM BKN090
     FM190300 33015KT P6SM SCT200
      AMD LTD TO CLD VIS AND WIND=

USA.gov is the U.S. government's official web portal to all federal, state and local government web resources and services.